createdAt,value
2019-04-03T00:01:43.974Z,10.20
2019-04-03T00:04:11.321Z,9.70
2019-04-03T00:06:39.684Z,9.80
2019-04-03T00:09:07.143Z,7.90
2019-04-03T00:11:34.799Z,14.63
2019-04-03T00:14:02.262Z,10.40
2019-04-03T00:16:29.473Z,9.60
2019-04-03T00:18:56.899Z,9.60
2019-04-03T00:21:28.715Z,10.57
2019-04-03T00:23:57.122Z,9.50
2019-04-03T00:26:25.837Z,14.50
2019-04-03T00:28:53.209Z,10.27
2019-04-03T00:31:23.291Z,11.30
2019-04-03T00:33:52.931Z,11.10
2019-04-03T00:36:21.618Z,11.03
2019-04-03T00:38:49.626Z,9.53
2019-04-03T00:41:16.829Z,11.10
2019-04-03T00:43:44.244Z,8.77
2019-04-03T00:46:11.460Z,9.00
2019-04-03T00:48:38.974Z,14.20
2019-04-03T00:51:06.748Z,10.60
2019-04-03T00:53:37.071Z,13.23
2019-04-03T00:56:04.324Z,10.20
2019-04-03T00:58:36.652Z,10.80
2019-04-03T01:01:06.678Z,11.57
2019-04-03T01:03:34.161Z,13.33
2019-04-03T01:06:01.436Z,10.07
2019-04-03T01:08:30.295Z,11.80
2019-04-03T01:10:58.745Z,8.63
2019-04-03T01:13:26.736Z,11.00
2019-04-03T01:15:53.796Z,14.80
2019-04-03T01:18:27.218Z,9.03
2019-04-03T01:20:54.359Z,12.70
2019-04-03T01:23:21.582Z,10.17
2019-04-03T01:25:48.742Z,9.30
2019-04-03T01:28:16.039Z,10.60
2019-04-03T01:30:44.233Z,10.03
2019-04-03T01:33:11.721Z,9.60
2019-04-03T01:35:38.863Z,11.77
2019-04-03T01:38:06.426Z,11.60
2019-04-03T01:40:33.707Z,9.67
2019-04-03T01:43:00.924Z,11.00
2019-04-03T01:45:28.115Z,9.33
2019-04-03T01:47:57.347Z,10.57
2019-04-03T01:50:24.263Z,10.03
2019-04-03T01:52:51.419Z,12.20
2019-04-03T01:55:18.678Z,9.27
2019-04-03T01:57:45.962Z,13.60
2019-04-03T02:00:13.427Z,9.97
2019-04-03T02:02:40.697Z,9.70
2019-04-03T02:05:08.083Z,10.73
2019-04-03T02:07:35.232Z,8.80
2019-04-03T02:10:03.362Z,8.50
2019-04-03T02:12:30.771Z,8.50
2019-04-03T02:14:57.944Z,9.93
2019-04-03T02:17:25.408Z,11.73
2019-04-03T02:19:52.718Z,12.90
2019-04-03T02:22:19.910Z,13.17
2019-04-03T02:24:47.108Z,10.97
2019-04-03T02:27:14.521Z,13.77
2019-04-03T02:29:41.641Z,10.93
2019-04-03T02:32:08.810Z,13.50
2019-04-03T02:34:36.703Z,12.03
2019-04-03T02:37:04.096Z,10.73
2019-04-03T02:39:31.656Z,11.93
2019-04-03T02:41:59.157Z,9.77
2019-04-03T02:44:26.317Z,12.90
2019-04-03T02:46:53.379Z,9.20
2019-04-03T02:49:20.960Z,11.57
2019-04-03T02:51:51.790Z,14.20
2019-04-03T02:54:28.035Z,11.10
2019-04-03T02:56:55.702Z,14.13
2019-04-03T02:59:25.149Z,9.70
2019-04-03T03:01:51.955Z,13.00
2019-04-03T03:04:21.479Z,9.80
2019-04-03T03:06:48.626Z,19.50
2019-04-03T03:09:15.920Z,10.37
2019-04-03T03:11:43.213Z,10.37
2019-04-03T03:14:11.094Z,10.63
2019-04-03T03:16:38.450Z,12.17
2019-04-03T03:19:06.359Z,16.90
2019-04-03T03:21:33.679Z,11.00
2019-04-03T03:24:01.080Z,11.87
2019-04-03T03:26:28.653Z,13.93
2019-04-03T03:28:56.074Z,13.70
2019-04-03T03:31:56.881Z,9.93
2019-04-03T03:33:52.977Z,14.13
2019-04-03T03:36:24.820Z,12.63
2019-04-03T03:38:50.146Z,11.13
2019-04-03T03:41:22.056Z,10.00
2019-04-03T03:43:48.361Z,9.93
2019-04-03T03:46:15.649Z,13.20
2019-04-03T03:48:45.043Z,9.40
2019-04-03T03:51:14.209Z,13.63
2019-04-03T03:53:44.505Z,9.60
2019-04-03T03:56:10.976Z,11.63
2019-04-03T03:58:38.245Z,10.37
2019-04-03T04:01:05.665Z,9.37
2019-04-03T04:03:32.836Z,15.07
2019-04-03T04:06:00.050Z,10.37
2019-04-03T04:08:27.498Z,13.23
2019-04-03T04:10:58.017Z,9.80
2019-04-03T04:13:23.753Z,13.70
2019-04-03T04:15:50.930Z,12.57
2019-04-03T04:18:18.103Z,11.83
2019-04-03T04:20:45.713Z,11.53
2019-04-03T04:23:13.161Z,10.93
2019-04-03T04:25:43.418Z,13.03
2019-04-03T04:28:09.937Z,12.87
2019-04-03T04:30:37.354Z,11.53
2019-04-03T04:33:04.741Z,13.07
2019-04-03T04:35:31.837Z,10.43
2019-04-03T04:37:59.015Z,13.33
2019-04-03T04:40:26.468Z,15.43
2019-04-03T04:42:53.977Z,10.30
2019-04-03T04:45:21.478Z,11.43
2019-04-03T04:47:48.526Z,11.53
2019-04-03T04:50:20.423Z,11.20
2019-04-03T04:52:47.769Z,9.90
2019-04-03T04:55:14.867Z,13.40
2019-04-03T04:57:42.303Z,11.90
2019-04-03T05:00:09.723Z,12.40
2019-04-03T05:02:36.879Z,11.63
2019-04-03T05:05:04.660Z,12.10
2019-04-03T05:07:32.104Z,11.83
2019-04-03T05:09:59.580Z,10.67
2019-04-03T05:12:26.764Z,13.83
2019-04-03T05:14:53.889Z,10.20
2019-04-03T05:17:21.048Z,10.07
2019-04-03T05:19:49.026Z,10.90
2019-04-03T05:22:16.716Z,12.43
2019-04-03T05:24:44.036Z,18.87
2019-04-03T05:27:11.256Z,15.23
2019-04-03T05:29:38.744Z,21.10
2019-04-03T05:32:05.985Z,12.37
2019-04-03T05:34:33.168Z,13.67
2019-04-03T05:37:00.667Z,15.33
2019-04-03T05:39:27.879Z,17.73
2019-04-03T05:41:54.946Z,13.53
2019-04-03T05:44:23.793Z,11.43
2019-04-03T05:46:51.179Z,11.87
2019-04-03T05:49:19.343Z,15.47
2019-04-03T05:51:47.033Z,12.87
2019-04-03T05:54:14.779Z,9.67
2019-04-03T05:56:42.896Z,15.57
2019-04-03T05:59:10.524Z,8.53
2019-04-03T06:01:37.788Z,8.40
2019-04-03T06:04:05.197Z,11.27
2019-04-03T06:06:32.430Z,7.53
2019-04-03T06:08:59.949Z,11.20
2019-04-03T06:11:27.099Z,9.13
2019-04-03T06:13:54.367Z,12.83
2019-04-03T06:16:23.401Z,10.93
2019-04-03T06:18:50.848Z,9.70
2019-04-03T06:21:18.016Z,10.67
2019-04-03T06:23:45.213Z,7.90
2019-04-03T06:26:12.366Z,11.43
2019-04-03T06:28:42.340Z,10.93
2019-04-03T06:31:08.892Z,6.40
2019-04-03T06:33:36.674Z,9.17
2019-04-03T06:36:04.006Z,8.47
2019-04-03T06:38:31.121Z,11.10
2019-04-03T06:40:58.567Z,7.70
2019-04-03T06:43:25.670Z,9.10
2019-04-03T06:45:52.880Z,8.20
2019-04-03T06:48:20.062Z,13.40
2019-04-03T06:50:47.157Z,6.60
2019-04-03T06:53:14.355Z,15.13
2019-04-03T06:55:41.542Z,15.00
2019-04-03T06:58:10.961Z,10.93
2019-04-03T07:00:38.126Z,10.50
2019-04-03T07:03:05.366Z,9.00
2019-04-03T07:05:32.475Z,10.50
2019-04-03T07:08:00.835Z,7.90
2019-04-03T07:10:28.427Z,8.10
2019-04-03T07:12:56.054Z,8.23
2019-04-03T07:15:24.512Z,8.80
2019-04-03T07:17:52.414Z,8.00
2019-04-03T07:20:20.799Z,10.87
2019-04-03T07:22:48.454Z,9.60
2019-04-03T07:25:15.687Z,9.07
2019-04-03T07:27:42.865Z,9.60
2019-04-03T07:30:10.684Z,9.40
2019-04-03T07:32:37.940Z,8.53
2019-04-03T07:35:09.350Z,8.40
2019-04-03T07:37:35.112Z,13.80
2019-04-03T07:40:03.312Z,9.43
2019-04-03T07:42:30.688Z,9.70
2019-04-03T07:44:57.973Z,10.53
2019-04-03T07:47:25.187Z,8.10
2019-04-03T07:49:52.647Z,10.93
2019-04-03T07:52:20.414Z,7.40
2019-04-03T07:54:47.662Z,7.93
2019-04-03T07:57:16.418Z,9.27
2019-04-03T07:59:44.006Z,6.50
2019-04-03T08:02:12.583Z,10.77
2019-04-03T08:04:40.343Z,8.27
2019-04-03T08:07:07.668Z,8.20
2019-04-03T08:09:34.888Z,7.40
2019-04-03T08:12:04.157Z,8.73
2019-04-03T08:14:31.089Z,8.67
2019-04-03T08:16:58.519Z,8.63
2019-04-03T08:19:25.882Z,8.73
2019-04-03T08:21:53.029Z,7.00
2019-04-03T08:24:20.241Z,7.50
2019-04-03T08:26:48.958Z,7.00
2019-04-03T08:29:16.565Z,8.03
2019-04-03T08:31:47.796Z,8.50
2019-04-03T08:34:17.075Z,8.30
2019-04-03T08:36:41.948Z,9.77
2019-04-03T08:39:09.156Z,8.93
2019-04-03T08:41:37.777Z,8.80
2019-04-03T08:44:08.255Z,9.60
2019-04-03T08:46:34.766Z,15.93
2019-04-03T08:49:01.862Z,11.50
2019-04-03T08:51:29.495Z,8.37
2019-04-03T08:53:56.676Z,11.60
2019-04-03T08:56:23.924Z,12.60
2019-04-03T08:58:51.100Z,7.13
2019-04-03T09:01:18.462Z,7.73
2019-04-03T09:03:46.422Z,6.63
2019-04-03T09:06:13.667Z,9.63
2019-04-03T09:08:40.808Z,10.27
2019-04-03T09:11:08.252Z,10.57
2019-04-03T09:13:35.703Z,12.23
2019-04-03T09:16:03.353Z,9.50
2019-04-03T09:18:30.963Z,7.63
2019-04-03T09:20:58.058Z,10.90
2019-04-03T09:23:25.537Z,6.77
2019-04-03T09:25:52.722Z,7.00
2019-04-03T09:28:19.881Z,8.30
2019-04-03T09:30:48.305Z,12.40
2019-04-03T09:33:15.723Z,5.33
2019-04-03T09:35:43.388Z,7.40
2019-04-03T09:38:10.974Z,4.37
2019-04-03T09:40:38.330Z,9.63
2019-04-03T09:43:05.749Z,6.50
2019-04-03T09:45:33.382Z,6.53
2019-04-03T09:48:00.867Z,4.73
2019-04-03T09:50:28.055Z,5.53
2019-04-03T09:52:55.554Z,9.13
2019-04-03T09:55:22.823Z,3.37
2019-04-03T09:57:52.345Z,3.90
2019-04-03T10:00:19.363Z,4.00
2019-04-03T10:02:46.546Z,5.00
2019-04-03T10:05:15.128Z,6.30
2019-04-03T10:07:42.750Z,4.63
2019-04-03T10:10:10.410Z,5.70
2019-04-03T10:12:38.012Z,6.03
2019-04-03T10:15:05.476Z,3.50
2019-04-03T10:17:32.826Z,4.20
2019-04-03T10:20:00.050Z,5.17
2019-04-03T10:22:27.439Z,6.70
2019-04-03T10:24:54.656Z,4.60
2019-04-03T10:27:21.862Z,3.30
2019-04-03T10:29:50.262Z,4.30
2019-04-03T10:32:18.147Z,3.43
2019-04-03T10:34:45.349Z,4.37
2019-04-03T10:37:14.765Z,4.20
2019-04-03T10:39:44.282Z,2.60
2019-04-03T10:42:11.300Z,6.23
2019-04-03T10:44:38.957Z,2.17
2019-04-03T10:47:06.172Z,1.67
2019-04-03T10:49:33.311Z,1.97
2019-04-03T10:52:00.503Z,1.90
2019-04-03T10:54:28.250Z,3.20
2019-04-03T10:56:55.483Z,2.40
2019-04-03T10:59:22.580Z,3.63
2019-04-03T11:01:50.040Z,1.87
2019-04-03T11:04:17.049Z,1.83
2019-04-03T11:06:44.408Z,2.40
2019-04-03T11:09:12.269Z,2.83
2019-04-03T11:11:42.529Z,4.17
2019-04-03T11:14:08.686Z,4.00
2019-04-03T11:16:38.494Z,3.10
2019-04-03T11:19:07.004Z,3.33
2019-04-03T11:21:34.341Z,3.40
2019-04-03T11:24:01.887Z,4.27
2019-04-03T11:26:29.143Z,3.30
2019-04-03T11:28:56.611Z,5.23
2019-04-03T11:31:26.987Z,4.57
2019-04-03T11:33:52.909Z,6.13
2019-04-03T11:36:20.055Z,9.10
2019-04-03T11:38:47.701Z,3.63
2019-04-03T11:41:18.279Z,4.40
2019-04-03T11:43:44.222Z,4.10
2019-04-03T11:46:11.668Z,6.50
2019-04-03T11:48:39.011Z,3.70
2019-04-03T11:51:06.471Z,3.80
2019-04-03T11:53:35.533Z,4.27
2019-04-03T11:56:03.250Z,3.77
2019-04-03T11:58:30.947Z,3.90
2019-04-03T12:00:58.569Z,4.90
2019-04-03T12:03:25.778Z,3.70
2019-04-03T12:05:53.155Z,5.03
2019-04-03T12:08:20.991Z,4.00
2019-04-03T12:10:48.253Z,3.77
2019-04-03T12:13:15.494Z,4.40
2019-04-03T12:15:42.742Z,3.90
2019-04-03T12:18:09.964Z,3.80
2019-04-03T12:20:41.260Z,5.00
2019-04-03T12:23:06.215Z,4.83
2019-04-03T12:25:34.720Z,4.33
2019-04-03T12:28:03.141Z,3.77
2019-04-03T12:30:30.811Z,4.20
2019-04-03T12:32:57.967Z,4.23
2019-04-03T12:35:25.164Z,4.10
2019-04-03T12:37:52.345Z,7.40
2019-04-03T12:40:19.756Z,4.90
2019-04-03T12:42:46.937Z,4.10
2019-04-03T12:45:17.183Z,4.77
2019-04-03T12:47:44.643Z,5.33
2019-04-03T12:50:14.557Z,6.20
2019-04-03T12:52:44.407Z,5.00
2019-04-03T12:55:11.094Z,5.17
2019-04-03T12:57:39.796Z,4.50
2019-04-03T13:00:10.857Z,6.37
2019-04-03T13:02:38.002Z,7.83
2019-04-03T13:05:07.264Z,4.37
2019-04-03T13:07:36.797Z,4.73
2019-04-03T13:10:07.014Z,4.10
2019-04-03T13:12:34.563Z,4.93
2019-04-03T13:15:04.296Z,5.10
2019-04-03T13:17:31.162Z,4.63
2019-04-03T13:20:03.205Z,4.33
2019-04-03T13:22:27.789Z,4.50
2019-04-03T13:24:55.264Z,7.50
2019-04-03T13:27:22.554Z,5.80
2019-04-03T13:29:50.199Z,7.87
2019-04-03T13:32:17.968Z,4.20
2019-04-03T13:34:46.037Z,5.40
2019-04-03T13:37:13.793Z,5.17
2019-04-03T13:39:41.179Z,6.00
2019-04-03T13:42:08.475Z,6.17
2019-04-03T13:44:35.954Z,4.30
2019-04-03T13:47:03.293Z,5.30
2019-04-03T13:49:31.308Z,4.40
2019-04-03T13:52:02.782Z,4.87
2019-04-03T13:54:29.305Z,4.93
2019-04-03T13:56:56.635Z,8.60
2019-04-03T13:59:25.848Z,4.83
2019-04-03T14:01:54.553Z,11.57
2019-04-03T14:04:22.919Z,6.30
2019-04-03T14:06:50.573Z,8.60
2019-04-03T14:09:17.936Z,4.60
2019-04-03T14:11:45.405Z,4.97
2019-04-03T14:14:15.647Z,5.80
2019-04-03T14:16:42.386Z,5.50
2019-04-03T14:19:11.587Z,5.10
2019-04-03T14:21:39.527Z,4.60
2019-04-03T14:24:08.292Z,7.30
2019-04-03T14:26:37.584Z,4.73
2019-04-03T14:29:07.063Z,4.77
2019-04-03T14:31:37.505Z,4.97
2019-04-03T14:34:03.485Z,4.40
2019-04-03T14:36:31.110Z,4.97
2019-04-03T14:38:58.466Z,7.73
2019-04-03T14:41:26.366Z,4.97
2019-04-03T14:43:54.205Z,5.60
2019-04-03T14:46:21.879Z,9.23
2019-04-03T14:48:50.514Z,4.60
2019-04-03T14:51:19.274Z,4.90
2019-04-03T14:53:47.250Z,5.20
2019-04-03T14:56:18.904Z,6.10
2019-04-03T14:58:46.315Z,5.17
2019-04-03T15:01:13.562Z,5.80
2019-04-03T15:03:41.285Z,6.10
2019-04-03T15:06:09.164Z,4.67
2019-04-03T15:08:37.016Z,6.60
2019-04-03T15:11:04.596Z,5.00
2019-04-03T15:13:32.335Z,4.50
2019-04-03T15:16:03.425Z,4.63
2019-04-03T15:18:34.996Z,5.20
2019-04-03T15:21:03.282Z,5.03
2019-04-03T15:23:31.190Z,5.47
2019-04-03T15:26:00.054Z,6.50
2019-04-03T15:28:30.427Z,5.50
2019-04-03T15:31:17.011Z,6.30
2019-04-03T15:33:44.601Z,5.17
2019-04-03T15:36:12.297Z,5.23
2019-04-03T15:38:39.562Z,7.50
2019-04-03T15:41:06.900Z,4.97
2019-04-03T15:43:34.025Z,7.77
2019-04-03T15:46:01.790Z,5.97
2019-04-03T15:48:29.131Z,5.50
2019-04-03T15:50:56.575Z,8.90
2019-04-03T15:53:25.021Z,5.40
2019-04-03T15:55:52.338Z,8.23
2019-04-03T15:58:19.675Z,7.63
2019-04-03T16:00:47.486Z,11.77
2019-04-03T16:03:16.364Z,9.30
2019-04-03T16:05:43.799Z,16.03
2019-04-03T16:08:12.440Z,8.07
2019-04-03T16:10:40.678Z,6.97
2019-04-03T16:13:07.899Z,8.37
2019-04-03T16:15:35.773Z,5.60
2019-04-03T16:18:06.256Z,8.40
2019-04-03T16:20:32.258Z,5.90
2019-04-03T16:22:59.544Z,7.43
2019-04-03T16:25:26.690Z,8.43
2019-04-03T16:27:53.787Z,11.63
2019-04-03T16:30:21.785Z,6.73
2019-04-03T16:32:49.605Z,5.60
2019-04-03T16:35:17.498Z,3.87
2019-04-03T16:37:45.237Z,8.83
2019-04-03T16:40:12.990Z,19.03
2019-04-03T16:42:40.307Z,8.73
2019-04-03T16:45:14.391Z,8.20
2019-04-03T16:47:44.092Z,9.23
2019-04-03T16:50:11.816Z,8.60
2019-04-03T16:52:39.007Z,7.67
2019-04-03T16:55:06.754Z,5.67
2019-04-03T16:57:34.624Z,5.10
2019-04-03T17:00:02.449Z,4.50
2019-04-03T17:02:30.030Z,5.87
2019-04-03T17:04:57.847Z,4.43
2019-04-03T17:07:25.339Z,10.13
2019-04-03T17:09:52.457Z,7.90
2019-04-03T17:12:19.845Z,6.70
2019-04-03T17:14:47.123Z,11.23
2019-04-03T17:17:15.068Z,12.63
2019-04-03T17:19:42.783Z,6.83
2019-04-03T17:22:10.017Z,4.87
2019-04-03T17:24:42.769Z,6.63
2019-04-03T17:27:06.992Z,3.57
2019-04-03T17:29:34.521Z,3.13
2019-04-03T17:32:02.188Z,4.43
2019-04-03T17:34:29.513Z,24.60
2019-04-03T17:36:56.820Z,7.00
2019-04-03T17:39:24.120Z,2.73
2019-04-03T17:41:51.317Z,10.93
2019-04-03T17:44:18.851Z,5.90
2019-04-03T17:46:48.701Z,4.70
2019-04-03T17:49:15.199Z,7.60
2019-04-03T17:51:42.460Z,9.30
2019-04-03T17:54:09.981Z,5.37
2019-04-03T17:56:37.117Z,4.73
2019-04-03T17:59:04.318Z,8.60
2019-04-03T18:01:31.437Z,10.57
2019-04-03T18:03:58.684Z,6.63
2019-04-03T18:06:27.363Z,5.10
2019-04-03T18:08:55.346Z,2.47
2019-04-03T18:11:22.604Z,3.10
2019-04-03T18:13:49.929Z,4.27
2019-04-03T18:16:17.059Z,5.23
2019-04-03T18:18:44.315Z,5.53
2019-04-03T18:21:13.042Z,2.43
2019-04-03T18:23:40.395Z,2.83
2019-04-03T18:26:07.631Z,4.43
2019-04-03T18:28:35.772Z,9.23
2019-04-03T18:31:04.234Z,6.63
2019-04-03T18:33:31.737Z,5.90
2019-04-03T18:35:58.900Z,4.13
2019-04-03T18:38:26.021Z,3.30
2019-04-03T18:40:53.319Z,3.90
2019-04-03T18:43:21.892Z,3.67
2019-04-03T18:45:49.600Z,3.47
2019-04-03T18:48:17.072Z,3.67
2019-04-03T18:50:44.583Z,3.30
2019-04-03T18:53:11.831Z,3.63
2019-04-03T18:55:39.080Z,3.30
2019-04-03T18:58:06.289Z,3.07
2019-04-03T19:00:34.397Z,3.90
2019-04-03T19:03:01.633Z,5.10
2019-04-03T19:05:29.767Z,6.93
2019-04-03T19:07:57.031Z,7.23
2019-04-03T19:10:24.266Z,7.40
2019-04-03T19:12:51.455Z,5.90
2019-04-03T19:15:19.022Z,11.30
2019-04-03T19:17:46.099Z,8.03
2019-04-03T19:20:13.553Z,10.23
2019-04-03T19:22:40.788Z,12.33
2019-04-03T19:25:08.275Z,12.17
2019-04-03T19:27:35.496Z,12.30
2019-04-03T19:30:02.968Z,7.37
2019-04-03T19:32:30.225Z,8.20
2019-04-03T19:34:57.476Z,8.70
2019-04-03T19:37:24.699Z,9.60
2019-04-03T19:39:52.153Z,9.87
2019-04-03T19:42:19.436Z,8.20
2019-04-03T19:44:47.196Z,7.20
2019-04-03T19:47:15.709Z,8.27
2019-04-03T19:49:43.066Z,7.30
2019-04-03T19:52:10.271Z,6.90
2019-04-03T19:54:37.772Z,7.57
2019-04-03T19:57:05.027Z,9.80
2019-04-03T19:59:34.629Z,6.53
2019-04-03T20:02:01.629Z,8.43
2019-04-03T20:04:28.870Z,7.10
2019-04-03T20:06:56.097Z,7.10
2019-04-03T20:09:23.351Z,11.23
2019-04-03T20:11:53.182Z,8.60
2019-04-03T20:14:19.632Z,7.93
2019-04-03T20:16:46.835Z,8.53
2019-04-03T20:19:14.081Z,7.17
2019-04-03T20:21:41.349Z,6.87
2019-04-03T20:24:08.909Z,8.20
2019-04-03T20:26:36.121Z,7.90
2019-04-03T20:29:03.658Z,10.67
2019-04-03T20:31:30.827Z,8.70
2019-04-03T20:33:58.007Z,14.00
2019-04-03T20:36:25.242Z,10.13
2019-04-03T20:38:52.461Z,8.00
2019-04-03T20:41:19.710Z,8.90
2019-04-03T20:43:47.323Z,11.90
2019-04-03T20:46:14.533Z,8.27
2019-04-03T20:48:41.981Z,8.73
2019-04-03T20:51:10.466Z,7.43
2019-04-03T20:53:37.853Z,8.90
2019-04-03T20:56:05.067Z,7.03
2019-04-03T20:58:32.435Z,8.23
2019-04-03T21:01:06.824Z,6.47
2019-04-03T21:03:29.400Z,5.20
2019-04-03T21:05:56.805Z,4.03
2019-04-03T21:08:26.383Z,3.27
2019-04-03T21:10:53.622Z,4.97
2019-04-03T21:13:21.105Z,7.80
2019-04-03T21:15:48.200Z,5.13
2019-04-03T21:18:15.734Z,8.17
2019-04-03T21:20:43.160Z,6.47
2019-04-03T21:23:10.337Z,4.70
2019-04-03T21:25:37.556Z,5.40
2019-04-03T21:28:04.717Z,6.30
2019-04-03T21:30:32.084Z,7.57
2019-04-03T21:32:59.906Z,6.70
2019-04-03T21:35:27.571Z,7.47
2019-04-03T21:37:54.801Z,10.47
2019-04-03T21:40:22.068Z,8.87
2019-04-03T21:42:49.247Z,8.50
2019-04-03T21:45:16.437Z,9.73
2019-04-03T21:47:43.545Z,7.70
2019-04-03T21:50:12.081Z,9.50
2019-04-03T21:52:39.579Z,7.63
2019-04-03T21:55:07.260Z,10.60
2019-04-03T21:57:37.536Z,8.23
2019-04-03T22:00:06.037Z,7.17
2019-04-03T22:02:33.293Z,14.60
2019-04-03T22:05:00.462Z,5.57
2019-04-03T22:07:28.572Z,6.37
2019-04-03T22:09:56.514Z,4.33
2019-04-03T22:12:23.624Z,4.90
2019-04-03T22:14:50.795Z,6.20
2019-04-03T22:17:17.903Z,5.90
2019-04-03T22:19:45.397Z,6.00
2019-04-03T22:22:12.847Z,6.53
2019-04-03T22:24:40.151Z,8.30
2019-04-03T22:27:07.638Z,6.63
2019-04-03T22:29:35.135Z,7.33
2019-04-03T22:32:02.319Z,7.40
2019-04-03T22:34:30.012Z,4.90
2019-04-03T22:36:57.666Z,4.57
2019-04-03T22:39:25.199Z,4.73
2019-04-03T22:41:52.353Z,7.50
2019-04-03T22:44:19.560Z,3.90
2019-04-03T22:46:46.745Z,3.90
2019-04-03T22:49:14.237Z,4.60
2019-04-03T22:51:41.711Z,4.83
2019-04-03T22:54:10.859Z,3.13
2019-04-03T22:56:38.389Z,3.83
2019-04-03T22:59:05.471Z,6.67
2019-04-03T23:01:32.679Z,3.10
2019-04-03T23:03:59.846Z,6.67
2019-04-03T23:06:27.053Z,4.10
2019-04-03T23:08:54.412Z,5.30
2019-04-03T23:11:21.736Z,4.97
2019-04-03T23:13:48.957Z,5.70
2019-04-03T23:16:16.159Z,3.77
2019-04-03T23:18:44.943Z,4.93
2019-04-03T23:21:12.467Z,4.60
2019-04-03T23:23:39.793Z,6.37
2019-04-03T23:26:07.321Z,10.13
2019-04-03T23:28:34.681Z,9.70
2019-04-03T23:31:01.920Z,6.60
2019-04-03T23:33:29.451Z,6.43
2019-04-03T23:35:56.549Z,7.07
2019-04-03T23:38:24.793Z,12.73
2019-04-03T23:40:53.027Z,8.47
2019-04-03T23:43:20.251Z,8.93
2019-04-03T23:45:47.452Z,6.63
2019-04-03T23:48:17.484Z,8.27
2019-04-03T23:50:43.674Z,8.57
2019-04-03T23:53:10.941Z,8.20
2019-04-03T23:55:38.143Z,8.10
2019-04-03T23:58:05.406Z,7.23
